sensor_id;sensor_type;location;lat;lon;timestamp;temperature;humidity
22416;DHT22;12204;50.600;4.608;2022-11-21T00:03:18;21.90;75.50
22416;DHT22;12204;50.600;4.608;2022-11-21T00:08:21;22.00;75.30
22416;DHT22;12204;50.600;4.608;2022-11-21T00:13:25;22.00;75.10
22416;DHT22;12204;50.600;4.608;2022-11-21T00:18:32;22.10;75.30
22416;DHT22;12204;50.600;4.608;2022-11-21T00:23:36;22.00;75.20
22416;DHT22;12204;50.600;4.608;2022-11-21T00:28:40;22.10;74.90
22416;DHT22;12204;50.600;4.608;2022-11-21T00:33:45;22.00;75.00
22416;DHT22;12204;50.600;4.608;2022-11-21T00:38:49;22.00;75.10
22416;DHT22;12204;50.600;4.608;2022-11-21T00:43:53;22.00;75.20
22416;DHT22;12204;50.600;4.608;2022-11-21T00:48:58;22.00;76.00
22416;DHT22;12204;50.600;4.608;2022-11-21T00:54:02;22.00;75.30
22416;DHT22;12204;50.600;4.608;2022-11-21T00:59:06;21.90;75.40
22416;DHT22;12204;50.600;4.608;2022-11-21T01:04:11;21.90;75.30
22416;DHT22;12204;50.600;4.608;2022-11-21T01:09:15;21.90;75.30
22416;DHT22;12204;50.600;4.608;2022-11-21T01:14:18;21.90;75.40
22416;DHT22;12204;50.600;4.608;2022-11-21T01:19:23;21.80;75.40
22416;DHT22;12204;50.600;4.608;2022-11-21T01:24:27;21.80;75.60
22416;DHT22;12204;50.600;4.608;2022-11-21T01:29:31;21.80;75.80
22416;DHT22;12204;50.600;4.608;2022-11-21T01:34:36;21.70;75.90
22416;DHT22;12204;50.600;4.608;2022-11-21T01:39:40;21.70;76.10
22416;DHT22;12204;50.600;4.608;2022-11-21T01:44:47;21.70;76.10
22416;DHT22;12204;50.600;4.608;2022-11-21T01:49:54;21.60;76.40
22416;DHT22;12204;50.600;4.608;2022-11-21T01:55:02;21.60;76.70
22416;DHT22;12204;50.600;4.608;2022-11-21T02:00:10;21.60;76.70
22416;DHT22;12204;50.600;4.608;2022-11-21T02:05:19;21.60;76.70
22416;DHT22;12204;50.600;4.608;2022-11-21T02:10:26;21.60;76.80
22416;DHT22;12204;50.600;4.608;2022-11-21T02:15:29;21.60;76.60
22416;DHT22;12204;50.600;4.608;2022-11-21T02:20:35;21.50;76.50
22416;DHT22;12204;50.600;4.608;2022-11-21T02:25:42;21.50;76.40
22416;DHT22;12204;50.600;4.608;2022-11-21T02:30:46;21.50;76.50
22416;DHT22;12204;50.600;4.608;2022-11-21T02:35:56;21.50;77.10
22416;DHT22;12204;50.600;4.608;2022-11-21T02:41:07;21.40;76.30
22416;DHT22;12204;50.600;4.608;2022-11-21T02:46:14;21.40;76.40
22416;DHT22;12204;50.600;4.608;2022-11-21T02:51:17;21.40;76.30
22416;DHT22;12204;50.600;4.608;2022-11-21T02:56:23;21.40;76.20
22416;DHT22;12204;50.600;4.608;2022-11-21T03:01:26;21.40;76.80
22416;DHT22;12204;50.600;4.608;2022-11-21T03:06:30;21.40;76.80
22416;DHT22;12204;50.600;4.608;2022-11-21T03:11:35;21.40;76.70
22416;DHT22;12204;50.600;4.608;2022-11-21T03:16:39;21.30;76.50
22416;DHT22;12204;50.600;4.608;2022-11-21T03:21:43;21.40;76.90
22416;DHT22;12204;50.600;4.608;2022-11-21T03:26:48;21.40;76.80
22416;DHT22;12204;50.600;4.608;2022-11-21T03:31:51;21.40;77.00
22416;DHT22;12204;50.600;4.608;2022-11-21T03:36:55;21.30;76.70
22416;DHT22;12204;50.600;4.608;2022-11-21T03:42:00;21.30;76.80
22416;DHT22;12204;50.600;4.608;2022-11-21T03:47:04;21.30;76.70
22416;DHT22;12204;50.600;4.608;2022-11-21T03:52:07;21.30;76.70
22416;DHT22;12204;50.600;4.608;2022-11-21T03:57:12;21.30;76.80
22416;DHT22;12204;50.600;4.608;2022-11-21T04:02:16;21.30;77.00
22416;DHT22;12204;50.600;4.608;2022-11-21T04:07:20;21.20;76.50
22416;DHT22;12204;50.600;4.608;2022-11-21T04:12:25;21.20;76.70
22416;DHT22;12204;50.600;4.608;2022-11-21T04:17:28;21.20;76.80
22416;DHT22;12204;50.600;4.608;2022-11-21T04:22:32;21.20;76.60
22416;DHT22;12204;50.600;4.608;2022-11-21T04:27:37;21.20;76.50
22416;DHT22;12204;50.600;4.608;2022-11-21T04:32:41;21.20;76.40
22416;DHT22;12204;50.600;4.608;2022-11-21T04:37:45;21.20;76.80
22416;DHT22;12204;50.600;4.608;2022-11-21T04:42:50;21.20;76.40
22416;DHT22;12204;50.600;4.608;2022-11-21T04:47:54;21.20;76.10
22416;DHT22;12204;50.600;4.608;2022-11-21T04:52:58;21.20;76.10
22416;DHT22;12204;50.600;4.608;2022-11-21T04:58:03;21.20;76.10
22416;DHT22;12204;50.600;4.608;2022-11-21T05:03:06;21.10;76.10
22416;DHT22;12204;50.600;4.608;2022-11-21T05:08:10;21.10;75.90
22416;DHT22;12204;50.600;4.608;2022-11-21T05:13:15;21.10;76.00
22416;DHT22;12204;50.600;4.608;2022-11-21T05:18:25;21.10;75.90
22416;DHT22;12204;50.600;4.608;2022-11-21T05:23:29;21.10;76.10
22416;DHT22;12204;50.600;4.608;2022-11-21T05:28:35;21.10;76.50
22416;DHT22;12204;50.600;4.608;2022-11-21T05:33:38;21.10;77.00
22416;DHT22;12204;50.600;4.608;2022-11-21T05:38:42;21.10;76.70
22416;DHT22;12204;50.600;4.608;2022-11-21T05:43:47;21.10;76.90
22416;DHT22;12204;50.600;4.608;2022-11-21T05:48:52;21.10;76.60
22416;DHT22;12204;50.600;4.608;2022-11-21T05:53:56;21.10;76.70
22416;DHT22;12204;50.600;4.608;2022-11-21T05:59:02;21.10;76.70
22416;DHT22;12204;50.600;4.608;2022-11-21T06:04:06;21.10;76.60
22416;DHT22;12204;50.600;4.608;2022-11-21T06:09:11;21.00;76.60
22416;DHT22;12204;50.600;4.608;2022-11-21T06:14:16;21.00;76.40
22416;DHT22;12204;50.600;4.608;2022-11-21T06:19:19;21.00;76.40
22416;DHT22;12204;50.600;4.608;2022-11-21T06:24:23;21.00;76.70
22416;DHT22;12204;50.600;4.608;2022-11-21T06:29:28;21.00;76.80
22416;DHT22;12204;50.600;4.608;2022-11-21T06:34:32;21.00;76.50
22416;DHT22;12204;50.600;4.608;2022-11-21T06:39:36;21.00;76.50
22416;DHT22;12204;50.600;4.608;2022-11-21T06:44:41;21.10;76.00
22416;DHT22;12204;50.600;4.608;2022-11-21T06:49:45;21.10;75.80
22416;DHT22;12204;50.600;4.608;2022-11-21T06:54:48;21.10;75.90
22416;DHT22;12204;50.600;4.608;2022-11-21T06:59:53;21.20;75.80
22416;DHT22;12204;50.600;4.608;2022-11-21T07:04:57;21.20;75.80
22416;DHT22;12204;50.600;4.608;2022-11-21T07:10:01;21.30;75.80
22416;DHT22;12204;50.600;4.608;2022-11-21T07:15:07;21.30;75.80
22416;DHT22;12204;50.600;4.608;2022-11-21T07:20:12;21.30;75.70
22416;DHT22;12204;50.600;4.608;2022-11-21T07:25:16;21.40;75.80
22416;DHT22;12204;50.600;4.608;2022-11-21T07:30:21;21.40;75.80
22416;DHT22;12204;50.600;4.608;2022-11-21T07:35:25;21.40;75.70
22416;DHT22;12204;50.600;4.608;2022-11-21T07:40:30;21.40;75.70
22416;DHT22;12204;50.600;4.608;2022-11-21T07:45:37;21.40;75.80
22416;DHT22;12204;50.600;4.608;2022-11-21T07:50:41;21.40;75.80
22416;DHT22;12204;50.600;4.608;2022-11-21T07:55:44;21.40;75.70
22416;DHT22;12204;50.600;4.608;2022-11-21T08:00:50;21.40;75.70
22416;DHT22;12204;50.600;4.608;2022-11-21T08:05:54;21.40;75.70
22416;DHT22;12204;50.600;4.608;2022-11-21T08:10:58;21.40;75.80
22416;DHT22;12204;50.600;4.608;2022-11-21T08:16:03;21.40;75.70
22416;DHT22;12204;50.600;4.608;2022-11-21T08:21:07;21.40;75.90
22416;DHT22;12204;50.600;4.608;2022-11-21T08:26:11;21.40;75.90
22416;DHT22;12204;50.600;4.608;2022-11-21T08:31:16;21.40;76.00
22416;DHT22;12204;50.600;4.608;2022-11-21T08:36:19;21.40;76.20
22416;DHT22;12204;50.600;4.608;2022-11-21T08:41:23;21.30;75.60
22416;DHT22;12204;50.600;4.608;2022-11-21T08:46:46;21.10;74.40
22416;DHT22;12204;50.600;4.608;2022-11-21T08:51:50;21.00;73.30
22416;DHT22;12204;50.600;4.608;2022-11-21T08:56:54;20.90;72.20
22416;DHT22;12204;50.600;4.608;2022-11-21T09:01:59;20.80;71.60
22416;DHT22;12204;50.600;4.608;2022-11-21T09:07:03;20.70;71.20
22416;DHT22;12204;50.600;4.608;2022-11-21T09:12:07;20.80;71.10
22416;DHT22;12204;50.600;4.608;2022-11-21T09:17:13;20.80;71.10
22416;DHT22;12204;50.600;4.608;2022-11-21T09:22:34;20.80;71.50
22416;DHT22;12204;50.600;4.608;2022-11-21T09:27:38;20.80;72.10
22416;DHT22;12204;50.600;4.608;2022-11-21T09:32:43;20.80;72.50
22416;DHT22;12204;50.600;4.608;2022-11-21T09:37:46;20.70;72.90
22416;DHT22;12204;50.600;4.608;2022-11-21T09:43:02;20.70;73.30
22416;DHT22;12204;50.600;4.608;2022-11-21T09:48:46;20.70;73.50
22416;DHT22;12204;50.600;4.608;2022-11-21T09:53:57;20.70;74.00
22416;DHT22;12204;50.600;4.608;2022-11-21T09:59:16;20.70;74.30
22416;DHT22;12204;50.600;4.608;2022-11-21T10:04:32;20.60;74.50
22416;DHT22;12204;50.600;4.608;2022-11-21T10:09:47;20.60;74.70
22416;DHT22;12204;50.600;4.608;2022-11-21T10:15:28;20.60;75.00
22416;DHT22;12204;50.600;4.608;2022-11-21T10:20:51;20.70;75.30
22416;DHT22;12204;50.600;4.608;2022-11-21T10:26:11;20.70;75.80
22416;DHT22;12204;50.600;4.608;2022-11-21T10:31:19;20.70;74.90
22416;DHT22;12204;50.600;4.608;2022-11-21T10:36:27;20.70;74.40
22416;DHT22;12204;50.600;4.608;2022-11-21T10:41:39;20.70;73.80
22416;DHT22;12204;50.600;4.608;2022-11-21T10:46:56;20.60;73.10
22416;DHT22;12204;50.600;4.608;2022-11-21T10:52:05;20.60;72.90
22416;DHT22;12204;50.600;4.608;2022-11-21T10:57:13;20.60;73.20
22416;DHT22;12204;50.600;4.608;2022-11-21T11:02:23;20.60;73.10
22416;DHT22;12204;50.600;4.608;2022-11-21T11:07:29;20.50;72.80
22416;DHT22;12204;50.600;4.608;2022-11-21T11:12:33;20.50;72.60
22416;DHT22;12204;50.600;4.608;2022-11-21T11:17:56;20.50;73.20
22416;DHT22;12204;50.600;4.608;2022-11-21T11:23:22;20.50;73.40
22416;DHT22;12204;50.600;4.608;2022-11-21T11:28:34;20.50;73.60
22416;DHT22;12204;50.600;4.608;2022-11-21T11:33:40;20.50;74.50
22416;DHT22;12204;50.600;4.608;2022-11-21T11:38:56;20.50;74.70
22416;DHT22;12204;50.600;4.608;2022-11-21T11:44:11;20.50;74.80
22416;DHT22;12204;50.600;4.608;2022-11-21T11:49:39;20.50;75.00
22416;DHT22;12204;50.600;4.608;2022-11-21T11:55:22;20.50;75.20
22416;DHT22;12204;50.600;4.608;2022-11-21T12:00:37;20.50;75.30
22416;DHT22;12204;50.600;4.608;2022-11-21T12:05:53;20.50;75.70
22416;DHT22;12204;50.600;4.608;2022-11-21T12:11:24;20.40;75.70
22416;DHT22;12204;50.600;4.608;2022-11-21T12:16:51;20.40;75.80
22416;DHT22;12204;50.600;4.608;2022-11-21T12:21:55;20.40;75.90
22416;DHT22;12204;50.600;4.608;2022-11-21T12:27:15;20.40;76.20
22416;DHT22;12204;50.600;4.608;2022-11-21T12:32:37;20.40;76.20
22416;DHT22;12204;50.600;4.608;2022-11-21T12:37:59;20.40;76.20
22416;DHT22;12204;50.600;4.608;2022-11-21T12:43:22;20.30;76.30
22416;DHT22;12204;50.600;4.608;2022-11-21T12:48:44;20.30;76.30
22416;DHT22;12204;50.600;4.608;2022-11-21T12:54:29;20.30;76.40
22416;DHT22;12204;50.600;4.608;2022-11-21T13:00:14;20.40;76.60
22416;DHT22;12204;50.600;4.608;2022-11-21T13:05:28;20.40;76.70
22416;DHT22;12204;50.600;4.608;2022-11-21T13:10:33;20.30;76.70
22416;DHT22;12204;50.600;4.608;2022-11-21T13:15:46;20.30;76.80
22416;DHT22;12204;50.600;4.608;2022-11-21T13:20:57;20.30;76.80
22416;DHT22;12204;50.600;4.608;2022-11-21T13:26:00;20.30;76.90
22416;DHT22;12204;50.600;4.608;2022-11-21T13:31:28;20.30;77.00
22416;DHT22;12204;50.600;4.608;2022-11-21T13:36:38;20.30;77.10
22416;DHT22;12204;50.600;4.608;2022-11-21T13:42:09;20.30;77.10
22416;DHT22;12204;50.600;4.608;2022-11-21T13:48:01;20.20;77.10
22416;DHT22;12204;50.600;4.608;2022-11-21T13:53:40;20.20;77.20
22416;DHT22;12204;50.600;4.608;2022-11-21T13:59:19;20.20;77.30
22416;DHT22;12204;50.600;4.608;2022-11-21T14:05:01;20.20;77.30
22416;DHT22;12204;50.600;4.608;2022-11-21T14:10:28;20.20;77.40
22416;DHT22;12204;50.600;4.608;2022-11-21T14:15:42;20.20;77.40
22416;DHT22;12204;50.600;4.608;2022-11-21T14:20:52;20.20;77.40
22416;DHT22;12204;50.600;4.608;2022-11-21T14:26:00;20.20;77.40
22416;DHT22;12204;50.600;4.608;2022-11-21T14:31:06;20.10;77.50
22416;DHT22;12204;50.600;4.608;2022-11-21T14:36:16;20.10;77.50
22416;DHT22;12204;50.600;4.608;2022-11-21T14:41:25;20.20;77.60
22416;DHT22;12204;50.600;4.608;2022-11-21T14:46:32;20.10;77.50
22416;DHT22;12204;50.600;4.608;2022-11-21T14:51:40;20.10;77.60
22416;DHT22;12204;50.600;4.608;2022-11-21T14:56:47;20.10;77.60
22416;DHT22;12204;50.600;4.608;2022-11-21T15:01:59;20.10;77.70
22416;DHT22;12204;50.600;4.608;2022-11-21T15:07:17;20.10;77.80
22416;DHT22;12204;50.600;4.608;2022-11-21T15:12:35;20.10;77.80
22416;DHT22;12204;50.600;4.608;2022-11-21T15:17:47;20.10;77.80
22416;DHT22;12204;50.600;4.608;2022-11-21T15:23:27;20.00;77.70
22416;DHT22;12204;50.600;4.608;2022-11-21T15:28:32;20.00;77.80
22416;DHT22;12204;50.600;4.608;2022-11-21T15:33:55;20.10;77.90
22416;DHT22;12204;50.600;4.608;2022-11-21T15:39:22;20.10;77.90
22416;DHT22;12204;50.600;4.608;2022-11-21T15:44:26;20.00;77.90
22416;DHT22;12204;50.600;4.608;2022-11-21T15:49:30;20.00;77.90
22416;DHT22;12204;50.600;4.608;2022-11-21T15:54:36;20.00;78.00
22416;DHT22;12204;50.600;4.608;2022-11-21T15:59:40;20.00;78.00
22416;DHT22;12204;50.600;4.608;2022-11-21T16:04:43;20.00;78.00
22416;DHT22;12204;50.600;4.608;2022-11-21T16:09:49;20.00;78.10
22416;DHT22;12204;50.600;4.608;2022-11-21T16:14:53;20.00;78.10
22416;DHT22;12204;50.600;4.608;2022-11-21T16:19:57;20.00;78.20
22416;DHT22;12204;50.600;4.608;2022-11-21T16:25:02;20.00;78.10
22416;DHT22;12204;50.600;4.608;2022-11-21T16:30:07;20.00;78.10
22416;DHT22;12204;50.600;4.608;2022-11-21T16:35:12;20.00;78.20
22416;DHT22;12204;50.600;4.608;2022-11-21T16:40:17;19.90;78.10
22416;DHT22;12204;50.600;4.608;2022-11-21T16:45:21;19.90;78.10
22416;DHT22;12204;50.600;4.608;2022-11-21T16:50:25;19.90;78.10
22416;DHT22;12204;50.600;4.608;2022-11-21T16:55:30;19.90;78.20
22416;DHT22;12204;50.600;4.608;2022-11-21T17:00:34;19.90;78.20
22416;DHT22;12204;50.600;4.608;2022-11-21T17:05:38;19.90;78.20
22416;DHT22;12204;50.600;4.608;2022-11-21T17:10:43;19.90;78.20
22416;DHT22;12204;50.600;4.608;2022-11-21T17:15:47;19.90;78.30
22416;DHT22;12204;50.600;4.608;2022-11-21T17:20:50;19.90;78.30
22416;DHT22;12204;50.600;4.608;2022-11-21T17:26:00;19.90;78.30
22416;DHT22;12204;50.600;4.608;2022-11-21T17:31:05;19.90;78.40
22416;DHT22;12204;50.600;4.608;2022-11-21T17:36:11;19.80;78.30
22416;DHT22;12204;50.600;4.608;2022-11-21T17:41:19;19.80;78.40
22416;DHT22;12204;50.600;4.608;2022-11-21T17:46:24;19.90;78.40
22416;DHT22;12204;50.600;4.608;2022-11-21T17:51:31;19.90;78.40
22416;DHT22;12204;50.600;4.608;2022-11-21T17:56:40;19.80;78.30
22416;DHT22;12204;50.600;4.608;2022-11-21T18:01:50;19.80;78.40
22416;DHT22;12204;50.600;4.608;2022-11-21T18:06:54;19.80;78.40
22416;DHT22;12204;50.600;4.608;2022-11-21T18:11:59;19.80;78.40
22416;DHT22;12204;50.600;4.608;2022-11-21T18:17:03;19.80;78.40
22416;DHT22;12204;50.600;4.608;2022-11-21T18:22:07;19.80;78.50
22416;DHT22;12204;50.600;4.608;2022-11-21T18:27:14;19.80;78.50
22416;DHT22;12204;50.600;4.608;2022-11-21T18:32:18;19.80;78.60
22416;DHT22;12204;50.600;4.608;2022-11-21T18:37:21;19.80;78.50
22416;DHT22;12204;50.600;4.608;2022-11-21T18:42:26;19.80;78.40
22416;DHT22;12204;50.600;4.608;2022-11-21T18:47:30;19.90;78.50
22416;DHT22;12204;50.600;4.608;2022-11-21T18:52:34;19.90;78.60
22416;DHT22;12204;50.600;4.608;2022-11-21T18:57:45;19.80;78.50
22416;DHT22;12204;50.600;4.608;2022-11-21T19:02:49;19.80;78.60
22416;DHT22;12204;50.600;4.608;2022-11-21T19:07:53;19.80;78.60
22416;DHT22;12204;50.600;4.608;2022-11-21T19:12:58;19.90;78.60
22416;DHT22;12204;50.600;4.608;2022-11-21T19:18:02;20.10;78.70
22416;DHT22;12204;50.600;4.608;2022-11-21T19:23:07;20.70;77.20
22416;DHT22;12204;50.600;4.608;2022-11-21T19:28:12;21.20;75.60
22416;DHT22;12204;50.600;4.608;2022-11-21T19:33:16;21.50;74.60
22416;DHT22;12204;50.600;4.608;2022-11-21T19:38:20;21.70;74.10
22416;DHT22;12204;50.600;4.608;2022-11-21T19:43:27;21.70;73.90
22416;DHT22;12204;50.600;4.608;2022-11-21T19:48:32;21.80;74.00
22416;DHT22;12204;50.600;4.608;2022-11-21T19:53:36;21.80;74.20
22416;DHT22;12204;50.600;4.608;2022-11-21T19:58:43;21.70;74.20
22416;DHT22;12204;50.600;4.608;2022-11-21T20:03:48;21.70;74.40
22416;DHT22;12204;50.600;4.608;2022-11-21T20:08:54;21.60;74.50
22416;DHT22;12204;50.600;4.608;2022-11-21T20:14:02;21.60;74.60
22416;DHT22;12204;50.600;4.608;2022-11-21T20:19:08;21.60;74.80
22416;DHT22;12204;50.600;4.608;2022-11-21T20:24:13;21.50;74.90
22416;DHT22;12204;50.600;4.608;2022-11-21T20:29:19;21.50;75.30
22416;DHT22;12204;50.600;4.608;2022-11-21T20:34:23;21.40;75.50
22416;DHT22;12204;50.600;4.608;2022-11-21T20:39:27;21.40;75.70
22416;DHT22;12204;50.600;4.608;2022-11-21T20:44:34;21.30;75.70
22416;DHT22;12204;50.600;4.608;2022-11-21T20:49:59;21.30;75.80
22416;DHT22;12204;50.600;4.608;2022-11-21T20:55:03;21.30;75.90
22416;DHT22;12204;50.600;4.608;2022-11-21T21:00:10;21.20;76.10
22416;DHT22;12204;50.600;4.608;2022-11-21T21:05:17;21.20;76.40
22416;DHT22;12204;50.600;4.608;2022-11-21T21:10:20;21.20;77.10
22416;DHT22;12204;50.600;4.608;2022-11-21T21:15:27;21.20;77.20
22416;DHT22;12204;50.600;4.608;2022-11-21T21:20:31;21.10;77.10
22416;DHT22;12204;50.600;4.608;2022-11-21T21:25:55;21.00;77.10
22416;DHT22;12204;50.600;4.608;2022-11-21T21:31:05;21.00;77.00
22416;DHT22;12204;50.600;4.608;2022-11-21T21:36:11;21.00;77.20
22416;DHT22;12204;50.600;4.608;2022-11-21T21:41:16;20.90;77.50
22416;DHT22;12204;50.600;4.608;2022-11-21T21:46:23;20.90;77.50
22416;DHT22;12204;50.600;4.608;2022-11-21T21:51:29;20.90;77.50
22416;DHT22;12204;50.600;4.608;2022-11-21T21:56:34;20.80;77.40
22416;DHT22;12204;50.600;4.608;2022-11-21T22:01:39;20.90;77.70
22416;DHT22;12204;50.600;4.608;2022-11-21T22:06:44;21.10;77.50
22416;DHT22;12204;50.600;4.608;2022-11-21T22:11:47;21.70;76.40
22416;DHT22;12204;50.600;4.608;2022-11-21T22:16:52;22.00;75.40
22416;DHT22;12204;50.600;4.608;2022-11-21T22:21:56;22.10;75.00
22416;DHT22;12204;50.600;4.608;2022-11-21T22:27:00;22.20;74.90
22416;DHT22;12204;50.600;4.608;2022-11-21T22:32:05;22.30;75.20
22416;DHT22;12204;50.600;4.608;2022-11-21T22:37:09;22.30;75.90
22416;DHT22;12204;50.600;4.608;2022-11-21T22:42:13;22.30;76.00
22416;DHT22;12204;50.600;4.608;2022-11-21T22:47:18;22.30;76.10
22416;DHT22;12204;50.600;4.608;2022-11-21T22:52:22;22.20;76.20
22416;DHT22;12204;50.600;4.608;2022-11-21T22:57:26;22.20;76.20
22416;DHT22;12204;50.600;4.608;2022-11-21T23:02:33;22.20;76.40
22416;DHT22;12204;50.600;4.608;2022-11-21T23:07:36;22.10;76.20
22416;DHT22;12204;50.600;4.608;2022-11-21T23:12:40;22.10;75.80
22416;DHT22;12204;50.600;4.608;2022-11-21T23:17:49;22.10;75.70
22416;DHT22;12204;50.600;4.608;2022-11-21T23:22:55;22.00;76.30
22416;DHT22;12204;50.600;4.608;2022-11-21T23:27:59;22.00;76.30
22416;DHT22;12204;50.600;4.608;2022-11-21T23:33:05;21.90;76.60
22416;DHT22;12204;50.600;4.608;2022-11-21T23:38:09;21.90;76.70
22416;DHT22;12204;50.600;4.608;2022-11-21T23:43:13;21.80;76.80
22416;DHT22;12204;50.600;4.608;2022-11-21T23:48:19;21.80;77.00
22416;DHT22;12204;50.600;4.608;2022-11-21T23:53:25;21.70;77.20
22416;DHT22;12204;50.600;4.608;2022-11-21T23:58:28;21.70;77.20
